createdAt,value
2019-03-06T00:01:28.624Z,96735.27
2019-03-06T00:04:23.671Z,96737.77
2019-03-06T00:07:20.128Z,96734.83
2019-03-06T00:10:15.596Z,96746.11
2019-03-06T00:13:12.099Z,96735.98
2019-03-06T00:16:07.614Z,96734.36
2019-03-06T00:19:04.167Z,96738.50
2019-03-06T00:22:00.657Z,96741.08
2019-03-06T00:24:56.901Z,96734.36
2019-03-06T00:27:51.839Z,96726.46
2019-03-06T00:30:48.221Z,96728.55
2019-03-06T00:33:43.713Z,96728.55
2019-03-06T00:36:41.359Z,96731.06
2019-03-06T00:39:40.066Z,96728.05
2019-03-06T00:42:37.318Z,96727.55
2019-03-06T00:45:34.056Z,96726.75
2019-03-06T00:48:29.478Z,96729.30
2019-03-06T00:51:25.923Z,96730.16
2019-03-06T00:54:22.059Z,96729.34
2019-03-06T00:57:18.548Z,96717.59
2019-03-06T01:00:14.309Z,96720.53
2019-03-06T01:03:11.704Z,96715.08
2019-03-06T01:06:07.214Z,96714.22
2019-03-06T01:09:04.536Z,96720.47
2019-03-06T01:12:00.254Z,96724.67
2019-03-06T01:14:55.982Z,96728.44
2019-03-06T01:17:51.052Z,96722.62
2019-03-06T01:20:48.626Z,96719.28
2019-03-06T01:23:44.950Z,96717.59
2019-03-06T01:26:40.419Z,96704.91
2019-03-06T01:29:37.935Z,96711.66
2019-03-06T01:32:33.307Z,96709.94
2019-03-06T01:35:42.292Z,96707.50
2019-03-06T01:38:55.516Z,96706.64
2019-03-06T01:42:04.934Z,96688.21
2019-03-06T01:45:03.500Z,96687.85
2019-03-06T01:48:01.216Z,96688.21
2019-03-06T01:50:58.367Z,96677.33
2019-03-06T01:53:55.446Z,96680.56
2019-03-06T01:56:52.952Z,96672.95
2019-03-06T01:59:48.743Z,96670.37
2019-03-06T02:02:45.212Z,96675.83
2019-03-06T02:05:40.562Z,96682.87
2019-03-06T02:08:37.070Z,96683.16
2019-03-06T02:11:33.586Z,96679.67
2019-03-06T02:14:30.231Z,96675.76
2019-03-06T02:17:26.027Z,96672.31
2019-03-06T02:20:22.464Z,96673.03
2019-03-06T02:23:19.021Z,96667.93
2019-03-06T02:26:15.575Z,96677.91
2019-03-06T02:29:11.049Z,96670.19
2019-03-06T02:32:08.589Z,96676.83
2019-03-06T02:35:04.254Z,96677.58
2019-03-06T02:38:00.632Z,96662.31
2019-03-06T02:40:59.719Z,96658.91
2019-03-06T02:43:54.979Z,96657.17
2019-03-06T02:46:51.073Z,96648.59
2019-03-06T02:49:46.629Z,96642.59
2019-03-06T02:52:43.147Z,96638.33
2019-03-06T02:55:38.617Z,96624.84
2019-03-06T02:58:50.219Z,96630.60
2019-03-06T03:02:15.518Z,96621.70
2019-03-06T03:05:26.342Z,96617.00
2019-03-06T03:08:23.247Z,96627.83
2019-03-06T03:11:19.944Z,96630.30
2019-03-06T03:14:16.458Z,96630.22
2019-03-06T03:17:11.981Z,96628.18
2019-03-06T03:20:08.414Z,96629.87
2019-03-06T03:23:03.830Z,96631.91
2019-03-06T03:26:00.693Z,96633.52
2019-03-06T03:28:57.217Z,96632.22
2019-03-06T03:31:53.957Z,96629.95
2019-03-06T03:34:50.456Z,96638.58
2019-03-06T03:37:46.156Z,96631.20
2019-03-06T03:40:44.795Z,96628.53
2019-03-06T03:43:40.320Z,96627.16
2019-03-06T03:46:36.905Z,96630.14
2019-03-06T03:49:32.259Z,96631.74
2019-03-06T03:52:29.689Z,96623.31
2019-03-06T03:55:25.325Z,96626.52
2019-03-06T03:58:21.859Z,96633.97
2019-03-06T04:01:18.336Z,96638.08
2019-03-06T04:04:15.580Z,96635.38
2019-03-06T04:07:11.210Z,96637.70
2019-03-06T04:10:07.673Z,96622.72
2019-03-06T04:13:04.964Z,96622.72
2019-03-06T04:16:01.349Z,96619.53
2019-03-06T04:18:57.025Z,96617.87
2019-03-06T04:21:54.532Z,96611.19
2019-03-06T04:24:51.111Z,96608.64
2019-03-06T04:27:47.469Z,96609.45
2019-03-06T04:30:42.878Z,96594.91
2019-03-06T04:33:39.392Z,96592.22
2019-03-06T04:36:34.845Z,96597.23
2019-03-06T04:39:31.524Z,96599.63
2019-03-06T04:42:29.256Z,96602.59
2019-03-06T04:45:25.742Z,96607.56
2019-03-06T04:48:20.811Z,96605.66
2019-03-06T04:51:17.244Z,96604.93
2019-03-06T04:54:12.673Z,96605.92
2019-03-06T04:57:09.364Z,96595.89
2019-03-06T05:00:06.088Z,96598.41
2019-03-06T05:03:02.164Z,96597.70
2019-03-06T05:05:58.698Z,96596.92
2019-03-06T05:08:55.427Z,96598.52
2019-03-06T05:11:51.939Z,96602.72
2019-03-06T05:14:47.902Z,96598.36
2019-03-06T05:17:49.981Z,96598.05
2019-03-06T05:20:45.442Z,96591.78
2019-03-06T05:23:42.915Z,96587.50
2019-03-06T05:26:38.404Z,96595.02
2019-03-06T05:29:35.515Z,96593.77
2019-03-06T05:32:48.927Z,96590.02
2019-03-06T05:36:29.063Z,96591.14
2019-03-06T05:39:32.128Z,96587.39
2019-03-06T05:42:29.597Z,96588.30
2019-03-06T05:45:26.074Z,96591.14
2019-03-06T05:48:21.601Z,96589.11
2019-03-06T05:51:18.343Z,96585.78
2019-03-06T05:54:15.213Z,96593.30
2019-03-06T05:57:11.978Z,96584.09
2019-03-06T06:00:08.265Z,96585.70
2019-03-06T06:03:05.013Z,96574.86
2019-03-06T06:06:03.057Z,96573.16
2019-03-06T06:08:58.523Z,96569.41
2019-03-06T06:11:56.512Z,96565.64
2019-03-06T06:14:53.006Z,96574.42
2019-03-06T06:17:49.610Z,96565.25
2019-03-06T06:20:45.069Z,96559.81
2019-03-06T06:24:02.923Z,96556.87
2019-03-06T06:26:58.307Z,96554.80
2019-03-06T06:29:56.867Z,96556.61
2019-03-06T06:32:53.401Z,96562.26
2019-03-06T06:35:48.946Z,96556.03
2019-03-06T06:38:45.435Z,96546.95
2019-03-06T06:41:41.096Z,96527.80
2019-03-06T06:44:38.177Z,96524.58
2019-03-06T06:47:32.898Z,96521.80
2019-03-06T06:50:29.400Z,96522.43
2019-03-06T06:53:53.971Z,96513.38
2019-03-06T06:57:28.080Z,96510.20
2019-03-06T07:00:56.302Z,96511.25
2019-03-06T07:05:11.230Z,96508.11
2019-03-06T07:08:19.358Z,96503.98
2019-03-06T07:11:28.192Z,96502.45
2019-03-06T07:14:47.203Z,96506.83
2019-03-06T07:17:56.100Z,96502.86
2019-03-06T07:21:09.588Z,96506.34
2019-03-06T07:24:19.866Z,96512.36
2019-03-06T07:27:30.756Z,96508.31
2019-03-06T07:30:39.849Z,96509.27
2019-03-06T07:34:03.386Z,96498.98
2019-03-06T07:37:06.686Z,96493.38
2019-03-06T07:40:17.544Z,96494.77
2019-03-06T07:43:28.261Z,96494.94
2019-03-06T07:46:33.009Z,96493.09
2019-03-06T07:49:45.453Z,96497.91
2019-03-06T07:52:44.298Z,96488.09
2019-03-06T07:55:53.793Z,96479.95
2019-03-06T07:59:06.880Z,96475.14
2019-03-06T08:02:10.816Z,96472.08
2019-03-06T08:05:14.827Z,96458.91
2019-03-06T08:08:12.642Z,96445.66
2019-03-06T08:11:12.720Z,96435.86
2019-03-06T08:14:22.382Z,96438.56
2019-03-06T08:17:29.898Z,96439.59
2019-03-06T08:20:39.459Z,96437.88
2019-03-06T08:23:53.635Z,96438.60
2019-03-06T08:26:49.132Z,96429.64
2019-03-06T08:29:45.733Z,96426.45
2019-03-06T08:32:42.839Z,96426.63
2019-03-06T08:35:39.735Z,96430.14
2019-03-06T08:38:36.281Z,96420.99
2019-03-06T08:41:31.828Z,96413.58
2019-03-06T08:44:28.578Z,96412.91
2019-03-06T08:47:40.229Z,96405.47
2019-03-06T08:50:49.478Z,96399.73
2019-03-06T08:53:49.885Z,96401.63
2019-03-06T08:56:53.090Z,96399.66
2019-03-06T09:00:12.036Z,96398.90
2019-03-06T09:03:37.180Z,96399.42
2019-03-06T09:07:02.707Z,96389.08
2019-03-06T09:10:14.447Z,96387.17
2019-03-06T09:13:24.940Z,96386.45
2019-03-06T09:16:30.725Z,96391.64
2019-03-06T09:19:57.098Z,96385.84
2019-03-06T09:23:23.366Z,96381.75
2019-03-06T09:26:22.105Z,96376.83
2019-03-06T09:29:36.429Z,96374.88
2019-03-06T09:32:43.105Z,96365.30
2019-03-06T09:36:06.623Z,96368.78
2019-03-06T09:39:33.639Z,96355.36
2019-03-06T09:42:51.785Z,96348.24
2019-03-06T09:46:06.392Z,96325.16
2019-03-06T09:49:20.184Z,96330.30
2019-03-06T09:52:29.842Z,96321.14
2019-03-06T09:55:41.769Z,96322.53
2019-03-06T09:58:53.168Z,96317.09
2019-03-06T10:02:07.280Z,96304.03
2019-03-06T10:05:19.918Z,96305.31
2019-03-06T10:08:36.550Z,96298.70
2019-03-06T10:11:44.010Z,96293.64
2019-03-06T10:18:31.827Z,96307.21
2019-03-06T10:21:27.566Z,96298.02
2019-03-06T10:24:24.044Z,96295.50
2019-03-06T10:27:19.782Z,96291.29
2019-03-06T10:30:15.652Z,96297.62
2019-03-06T10:33:14.719Z,96293.86
2019-03-06T10:36:11.237Z,96283.73
2019-03-06T10:39:08.002Z,96290.50
2019-03-06T10:42:04.004Z,96284.61
2019-03-06T10:45:00.264Z,96288.41
2019-03-06T10:47:55.919Z,96280.84
2019-03-06T10:50:52.751Z,96282.16
2019-03-06T10:53:48.257Z,96266.96
2019-03-06T10:56:43.901Z,96251.76
2019-03-06T10:59:39.615Z,96255.98
2019-03-06T11:02:36.428Z,96250.90
2019-03-06T11:05:36.066Z,96237.84
2019-03-06T11:08:44.245Z,96227.30
2019-03-06T11:11:46.992Z,96216.73
2019-03-06T11:14:44.632Z,96210.37
2019-03-06T11:17:42.097Z,96214.17
2019-03-06T11:20:40.839Z,96212.47
2019-03-06T11:23:36.607Z,96212.86
2019-03-06T11:26:32.248Z,96210.30
2019-03-06T11:29:28.943Z,96208.16
2019-03-06T11:32:24.469Z,96194.16
2019-03-06T11:35:20.948Z,96195.82
2019-03-06T11:38:16.647Z,96190.67
2019-03-06T11:41:13.374Z,96184.72
2019-03-06T11:44:09.172Z,96173.69
2019-03-06T11:47:05.910Z,96168.56
2019-03-06T11:50:01.663Z,96166.00
2019-03-06T11:52:58.403Z,96151.97
2019-03-06T11:55:54.261Z,96149.41
2019-03-06T11:58:51.640Z,96144.41
2019-03-06T12:01:48.327Z,96140.62
2019-03-06T12:04:42.821Z,96138.52
2019-03-06T12:07:39.335Z,96140.62
2019-03-06T12:10:35.886Z,96143.14
2019-03-06T12:13:33.433Z,96138.02
2019-03-06T12:16:28.804Z,96132.02
2019-03-06T12:19:27.387Z,96127.39
2019-03-06T12:22:22.853Z,96114.67
2019-03-06T12:25:18.732Z,96111.25
2019-03-06T12:28:15.111Z,96114.22
2019-03-06T12:31:11.651Z,96103.56
2019-03-06T12:34:07.011Z,96097.14
2019-03-06T12:37:03.529Z,96092.12
2019-03-06T12:40:01.192Z,96085.81
2019-03-06T12:42:56.671Z,96083.72
2019-03-06T12:45:53.479Z,96082.01
2019-03-06T12:48:49.980Z,96072.64
2019-03-06T12:51:54.105Z,96070.06
2019-03-06T12:54:41.880Z,96062.39
2019-03-06T12:57:38.661Z,96053.05
2019-03-06T13:00:51.865Z,96047.16
2019-03-06T13:03:48.048Z,96045.44
2019-03-06T13:06:43.725Z,96033.53
2019-03-06T13:09:41.231Z,96030.06
2019-03-06T13:12:38.306Z,96020.81
2019-03-06T13:15:36.943Z,96008.10
2019-03-06T13:18:35.953Z,96002.94
2019-03-06T13:21:32.672Z,95994.44
2019-03-06T13:24:35.469Z,95987.73
2019-03-06T13:27:32.832Z,95981.31
2019-03-06T13:30:29.097Z,95971.05
2019-03-06T13:33:43.689Z,95971.39
2019-03-06T13:36:39.565Z,95974.75
2019-03-06T13:39:38.284Z,95962.81
2019-03-06T13:42:33.712Z,95954.28
2019-03-06T13:45:30.276Z,95944.96
2019-03-06T13:48:25.322Z,95936.84
2019-03-06T13:51:21.384Z,95927.94
2019-03-06T13:54:16.864Z,95923.25
2019-03-06T13:57:13.447Z,95928.31
2019-03-06T14:00:10.234Z,95923.23
2019-03-06T14:03:07.582Z,95915.20
2019-03-06T14:06:03.080Z,95910.56
2019-03-06T14:09:02.108Z,95903.70
2019-03-06T14:11:58.494Z,95903.16
2019-03-06T14:14:54.236Z,95897.08
2019-03-06T14:17:53.923Z,95891.01
2019-03-06T14:20:49.812Z,95874.70
2019-03-06T14:23:46.341Z,95872.20
2019-03-06T14:26:41.835Z,95874.86
2019-03-06T14:29:39.605Z,95867.55
2019-03-06T14:32:35.170Z,95864.52
2019-03-06T14:35:31.592Z,95860.16
2019-03-06T14:38:27.104Z,95860.03
2019-03-06T14:41:24.810Z,95849.86
2019-03-06T14:44:21.383Z,95854.89
2019-03-06T14:47:17.138Z,95848.00
2019-03-06T14:50:14.732Z,95839.87
2019-03-06T14:53:11.696Z,95837.20
2019-03-06T14:56:09.478Z,95834.27
2019-03-06T14:59:04.909Z,95832.92
2019-03-06T15:02:01.645Z,95829.53
2019-03-06T15:04:57.366Z,95818.20
2019-03-06T15:07:53.049Z,95821.69
2019-03-06T15:10:49.487Z,95818.00
2019-03-06T15:13:46.274Z,95820.70
2019-03-06T15:16:45.369Z,95817.86
2019-03-06T15:19:43.128Z,95816.28
2019-03-06T15:22:38.963Z,95809.55
2019-03-06T15:25:36.284Z,95797.70
2019-03-06T15:28:32.850Z,95795.25
2019-03-06T15:31:29.609Z,95788.98
2019-03-06T15:34:26.241Z,95791.59
2019-03-06T15:37:28.333Z,95792.16
2019-03-06T15:40:26.113Z,95793.91
2019-03-06T15:43:21.351Z,95792.22
2019-03-06T15:46:17.825Z,95793.14
2019-03-06T15:49:13.562Z,95781.45
2019-03-06T15:52:11.087Z,95769.66
2019-03-06T15:55:07.704Z,95769.77
2019-03-06T15:58:03.981Z,95764.80
2019-03-06T16:01:01.719Z,95760.61
2019-03-06T16:03:57.450Z,95760.69
2019-03-06T16:06:54.270Z,95756.16
2019-03-06T16:09:49.258Z,95766.41
2019-03-06T16:12:46.276Z,95757.19
2019-03-06T16:15:43.003Z,95755.14
2019-03-06T16:18:39.763Z,95752.67
2019-03-06T16:21:37.586Z,95746.84
2019-03-06T16:24:37.631Z,95741.00
2019-03-06T16:27:38.118Z,95730.96
2019-03-06T16:30:32.599Z,95718.81
2019-03-06T16:33:28.853Z,95720.17
2019-03-06T16:36:23.865Z,95711.80
2019-03-06T16:39:20.587Z,95718.25
2019-03-06T16:42:17.306Z,95722.11
2019-03-06T16:45:14.054Z,95721.33
2019-03-06T16:48:09.776Z,95728.17
2019-03-06T16:51:07.590Z,95725.70
2019-03-06T16:54:02.776Z,95724.94
2019-03-06T16:56:58.902Z,95722.45
2019-03-06T16:59:53.998Z,95718.70
2019-03-06T17:02:51.831Z,95718.78
2019-03-06T17:05:48.460Z,95716.30
2019-03-06T17:08:43.989Z,95717.61
2019-03-06T17:11:41.954Z,95715.59
2019-03-06T17:14:37.800Z,95708.02
2019-03-06T17:17:41.556Z,95711.47
2019-03-06T17:20:39.288Z,95713.64
2019-03-06T17:23:38.180Z,95711.58
2019-03-06T17:26:34.007Z,95712.05
2019-03-06T17:29:34.158Z,95714.61
2019-03-06T17:32:34.724Z,95715.92
2019-03-06T17:35:30.711Z,95708.39
2019-03-06T17:38:25.807Z,95707.59
2019-03-06T17:41:22.478Z,95709.77
2019-03-06T17:44:18.102Z,95718.23
2019-03-06T17:47:15.565Z,95712.77
2019-03-06T17:50:11.945Z,95714.90
2019-03-06T17:53:10.227Z,95707.36
2019-03-06T17:56:06.764Z,95711.16
2019-03-06T17:59:03.321Z,95711.20
2019-03-06T18:01:59.133Z,95713.33
2019-03-06T18:04:54.662Z,95707.86
2019-03-06T18:07:51.484Z,95720.95
2019-03-06T18:10:46.979Z,95712.52
2019-03-06T18:13:44.379Z,95708.31
2019-03-06T18:16:39.903Z,95702.44
2019-03-06T18:19:36.401Z,95699.93
2019-03-06T18:22:32.041Z,95696.59
2019-03-06T18:25:30.292Z,95699.16
2019-03-06T18:28:25.742Z,95692.83
2019-03-06T18:31:22.325Z,95688.22
2019-03-06T18:34:19.725Z,95690.34
2019-03-06T18:37:14.727Z,95679.84
2019-03-06T18:40:11.272Z,95682.36
2019-03-06T18:43:07.890Z,95678.19
2019-03-06T18:46:04.237Z,95683.23
2019-03-06T18:48:59.244Z,95673.16
2019-03-06T18:51:56.925Z,95666.85
2019-03-06T18:54:52.491Z,95666.44
2019-03-06T18:57:49.177Z,95656.78
2019-03-06T19:00:44.683Z,95652.17
2019-03-06T19:03:42.195Z,95644.16
2019-03-06T19:06:37.783Z,95634.52
2019-03-06T19:09:35.195Z,95634.52
2019-03-06T19:12:30.665Z,95634.95
2019-03-06T19:15:28.457Z,95635.78
2019-03-06T19:18:24.124Z,95632.85
2019-03-06T19:21:22.722Z,95625.30
2019-03-06T19:24:17.574Z,95621.06
2019-03-06T19:27:14.405Z,95614.75
2019-03-06T19:30:09.974Z,95607.62
2019-03-06T19:33:06.321Z,95603.83
2019-03-06T19:36:02.357Z,95604.25
2019-03-06T19:38:58.169Z,95599.22
2019-03-06T19:41:55.196Z,95602.56
2019-03-06T19:44:52.912Z,95604.28
2019-03-06T19:47:50.736Z,95608.05
2019-03-06T19:50:46.284Z,95616.48
2019-03-06T19:53:43.975Z,95608.50
2019-03-06T19:56:39.577Z,95604.29
2019-03-06T19:59:37.186Z,95599.26
2019-03-06T20:02:32.631Z,95599.26
2019-03-06T20:05:30.227Z,95594.19
2019-03-06T20:08:25.738Z,95589.59
2019-03-06T20:11:22.661Z,95584.12
2019-03-06T20:14:19.977Z,95569.83
2019-03-06T20:17:15.323Z,95563.52
2019-03-06T20:20:12.439Z,95559.30
2019-03-06T20:23:07.428Z,95553.02
2019-03-06T20:26:13.819Z,95561.41
2019-03-06T20:29:03.092Z,95559.33
2019-03-06T20:32:01.472Z,95558.05
2019-03-06T20:34:58.331Z,95566.45
2019-03-06T20:37:55.416Z,95566.45
2019-03-06T20:40:52.489Z,95566.42
2019-03-06T20:43:48.598Z,95567.25
2019-03-06T20:46:45.490Z,95552.95
2019-03-06T20:49:41.442Z,95552.96
2019-03-06T20:52:37.712Z,95553.78
2019-03-06T20:55:35.341Z,95552.09
2019-03-06T20:58:32.169Z,95547.88
2019-03-06T21:01:28.102Z,95542.84
2019-03-06T21:04:24.835Z,95553.73
2019-03-06T21:07:21.925Z,95552.89
2019-03-06T21:10:17.896Z,95547.00
2019-03-06T21:13:14.020Z,95546.18
2019-03-06T21:16:10.338Z,95544.48
2019-03-06T21:19:07.579Z,95545.30
2019-03-06T21:22:03.554Z,95546.16
2019-03-06T21:25:00.383Z,95546.12
2019-03-06T21:27:55.899Z,95539.41
2019-03-06T21:30:53.716Z,95531.83
2019-03-06T21:33:49.668Z,95530.98
2019-03-06T21:36:47.465Z,95537.27
2019-03-06T21:39:44.178Z,95536.02
2019-03-06T21:42:41.924Z,95530.12
2019-03-06T21:45:40.514Z,95520.46
2019-03-06T21:48:36.546Z,95529.27
2019-03-06T21:51:33.186Z,95520.87
2019-03-06T21:54:30.027Z,95530.12
2019-03-06T21:57:28.926Z,95528.42
2019-03-06T22:00:26.328Z,95535.13
2019-03-06T22:03:24.792Z,95535.13
2019-03-06T22:06:24.895Z,95534.27
2019-03-06T22:09:20.978Z,95528.42
2019-03-06T22:12:16.451Z,95529.23
2019-03-06T22:15:13.004Z,95525.90
2019-03-06T22:18:09.191Z,95525.86
2019-03-06T22:21:05.797Z,95514.98
2019-03-06T22:24:01.365Z,95526.72
2019-03-06T22:26:58.892Z,95523.34
2019-03-06T22:29:54.632Z,95522.53
2019-03-06T22:32:52.243Z,95515.83
2019-03-06T22:35:48.814Z,95524.23
2019-03-06T22:38:44.541Z,95524.23
2019-03-06T22:41:42.122Z,95510.80
2019-03-06T22:44:37.576Z,95509.53
2019-03-06T22:47:35.138Z,95501.13
2019-03-06T22:50:31.539Z,95503.24
2019-03-06T22:53:28.408Z,95505.31
2019-03-06T22:56:24.875Z,95511.65
2019-03-06T22:59:21.312Z,95505.77
2019-03-06T23:02:17.107Z,95496.91
2019-03-06T23:05:13.096Z,95496.47
2019-03-06T23:08:09.173Z,95489.77
2019-03-06T23:11:07.401Z,95480.52
2019-03-06T23:14:04.293Z,95479.70
2019-03-06T23:17:01.832Z,95462.90
2019-03-06T23:19:58.374Z,95462.90
2019-03-06T23:22:54.084Z,95461.23
2019-03-06T23:25:50.530Z,95466.30
2019-03-06T23:28:46.284Z,95457.90
2019-03-06T23:31:42.535Z,95452.42
2019-03-06T23:34:39.003Z,95436.06
2019-03-06T23:37:36.483Z,95418.45
2019-03-06T23:40:32.034Z,95407.53
2019-03-06T23:43:29.814Z,95387.37
2019-03-06T23:46:26.528Z,95398.28
2019-03-06T23:49:21.992Z,95399.10
2019-03-06T23:52:42.402Z,95408.34
2019-03-06T23:55:37.904Z,95417.59
2019-03-06T23:58:35.668Z,95429.33
